Time;durP1;ratioP1;P1;durP2;ratioP2;P2;SDS_P1;SDS_P2;PMS_P1;PMS_P2;Temp;Humidity;BMP_temperature;BMP_pressure;BME280_temperature;BME280_humidity;BME280_pressure;Samples;Min_cycle;Max_cycle;Signal;HPM_P1;HPM_P2
2023/09/18 00:01:49;;;;;;;16.05;13.00;;;;;;;11.66;71.34;101598.38;1738077;81;21359;-60
2023/09/18 00:04:55;;;;;;;15.58;12.98;;;;;;;11.66;71.44;101598.38;1737858;81;21331;-59
2023/09/18 00:08:05;;;;;;;17.42;13.62;;;;;;;11.64;71.49;101598.16;1737857;82;21355;-61
2023/09/18 00:11:09;;;;;;;18.15;13.43;;;;;;;11.61;71.50;101594.31;1737928;81;21940;-60
2023/09/18 00:14:16;;;;;;;20.62;13.70;;;;;;;11.57;71.54;101585.55;1728027;82;21324;-59
2023/09/18 00:17:23;;;;;;;16.70;13.15;;;;;;;11.56;71.61;101593.41;1739462;81;21912;-59
2023/09/18 00:20:29;;;;;;;24.63;13.48;;;;;;;11.53;71.65;101590.97;1740443;81;21374;-59
2023/09/18 00:23:35;;;;;;;19.82;14.33;;;;;;;11.52;71.71;101587.02;1747726;81;21496;-60
2023/09/18 00:26:41;;;;;;;21.02;13.70;;;;;;;11.49;71.76;101586.83;1737789;81;21354;-60
2023/09/18 00:29:47;;;;;;;16.80;13.03;;;;;;;11.47;71.81;101587.48;1738662;81;21344;-60
2023/09/18 00:32:55;;;;;;;17.55;12.88;;;;;;;11.46;71.84;101595.86;1740077;81;21855;-60
2023/09/18 00:36:02;;;;;;;19.25;13.55;;;;;;;11.44;71.86;101589.66;1740289;81;21363;-60
2023/09/18 00:39:08;;;;;;;16.73;12.98;;;;;;;11.42;71.87;101584.81;1750448;81;21243;-61
2023/09/18 00:42:16;;;;;;;16.95;12.78;;;;;;;11.38;71.90;101584.78;1748021;81;21223;-58
2023/09/18 00:45:23;;;;;;;17.98;12.88;;;;;;;11.36;71.98;101593.16;1750183;81;21945;-59
2023/09/18 00:48:31;;;;;;;19.17;14.50;;;;;;;11.35;72.05;101595.53;1780304;80;21330;-60
2023/09/18 00:51:37;;;;;;;20.12;13.72;;;;;;;11.33;72.07;101593.96;1779402;79;21361;-59
2023/09/18 00:54:43;;;;;;;21.37;12.70;;;;;;;11.32;72.16;101594.45;1780079;79;21354;-59
2023/09/18 00:57:49;;;;;;;18.77;13.03;;;;;;;11.29;72.19;101592.02;1756639;81;21204;-59
2023/09/18 01:00:54;;;;;;;16.30;12.20;;;;;;;11.29;72.23;101602.15;1748597;82;21346;-60
2023/09/18 01:04:01;;;;;;;19.05;12.73;;;;;;;11.27;72.22;101600.06;1786491;80;22225;-60
2023/09/18 01:07:07;;;;;;;20.35;14.45;;;;;;;11.23;72.18;101594.50;1751010;81;21873;-60
2023/09/18 01:10:19;;;;;;;24.70;14.58;;;;;;;11.18;72.15;101603.71;1780710;79;21529;-60
2023/09/18 01:13:26;;;;;;;17.30;13.83;;;;;;;11.12;72.14;101597.43;1738322;80;21840;-60
2023/09/18 01:17:03;;;;;;;19.48;14.55;;;;;;;11.07;72.17;101599.25;1774281;79;21724;-60
2023/09/18 01:20:17;;;;;;;19.52;13.80;;;;;;;11.03;72.22;101601.95;1740203;81;21471;-60
2023/09/18 01:23:24;;;;;;;18.75;13.72;;;;;;;10.99;72.33;101607.88;1739640;82;21915;-59
2023/09/18 01:26:30;;;;;;;23.10;14.40;;;;;;;10.98;72.35;101601.53;1762102;80;21247;-59
2023/09/18 01:29:37;;;;;;;22.65;15.15;;;;;;;10.94;72.39;101602.82;1743835;82;21333;-60
2023/09/18 01:32:44;;;;;;;19.23;14.28;;;;;;;10.92;72.44;101598.02;1744143;82;21350;-61
2023/09/18 01:35:54;;;;;;;20.15;14.38;;;;;;;10.89;72.51;101601.06;1755626;80;21351;-60
2023/09/18 01:39:00;;;;;;;18.20;13.80;;;;;;;10.88;72.61;101599.31;1756542;81;21228;-60
2023/09/18 01:42:10;;;;;;;20.23;13.78;;;;;;;10.90;72.76;101595.05;1758538;81;21398;-59
2023/09/18 01:45:16;;;;;;;18.42;13.53;;;;;;;10.90;72.83;101589.57;1763255;80;21385;-60
2023/09/18 01:48:22;;;;;;;18.65;12.80;;;;;;;10.91;72.89;101593.53;1769195;80;21334;-60
2023/09/18 01:51:28;;;;;;;21.02;12.68;;;;;;;10.92;72.93;101590.30;1737769;81;21350;-59
2023/09/18 01:54:34;;;;;;;20.70;13.55;;;;;;;10.90;72.95;101588.20;1737751;82;21343;-60
2023/09/18 01:57:41;;;;;;;18.48;13.38;;;;;;;10.86;72.93;101592.27;1738438;81;21343;-60
2023/09/18 02:00:48;;;;;;;17.55;12.45;;;;;;;10.84;73.00;101584.69;1737841;81;21371;-60
2023/09/18 02:03:48;;;;;;;14.58;11.90;;;;;;;10.84;73.07;101588.30;1740279;81;21339;-62
2023/09/18 02:06:57;;;;;;;14.73;11.48;;;;;;;10.79;72.96;101586.52;1738678;80;21904;-60
2023/09/18 02:10:03;;;;;;;15.03;11.63;;;;;;;10.76;72.96;101584.56;1739293;81;21371;-61
2023/09/18 02:13:10;;;;;;;19.32;11.90;;;;;;;10.74;73.01;101589.32;1738719;81;21841;-60
2023/09/18 02:16:15;;;;;;;15.50;11.70;;;;;;;10.73;73.08;101583.50;1741479;81;21384;-61
2023/09/18 02:19:21;;;;;;;19.40;12.23;;;;;;;10.70;73.08;101585.16;1731522;81;21857;-61
2023/09/18 02:22:27;;;;;;;17.65;11.35;;;;;;;10.67;73.06;101585.46;1724842;82;21368;-61
2023/09/18 02:25:33;;;;;;;14.03;10.93;;;;;;;10.65;73.11;101592.95;1739623;81;21391;-60
2023/09/18 02:28:39;;;;;;;15.05;11.22;;;;;;;10.62;73.11;101585.03;1738299;81;21347;-61
2023/09/18 02:31:46;;;;;;;16.12;11.20;;;;;;;10.58;73.11;101587.72;1732404;82;21363;-61
2023/09/18 02:34:52;;;;;;;15.88;11.53;;;;;;;10.53;73.15;101590.38;1737918;81;21340;-61
2023/09/18 02:38:00;;;;;;;14.28;11.80;;;;;;;10.50;73.24;101585.20;1738285;82;21343;-61
2023/09/18 02:41:06;;;;;;;14.43;12.37;;;;;;;10.51;73.36;101590.17;1738415;80;21493;-60
2023/09/18 02:44:12;;;;;;;15.63;12.43;;;;;;;10.50;73.49;101588.42;1737999;81;21395;-59
2023/09/18 02:47:20;;;;;;;17.00;12.28;;;;;;;10.49;73.60;101591.69;1737949;82;21855;-59
2023/09/18 02:50:27;;;;;;;17.12;11.93;;;;;;;10.49;73.71;101597.17;1738066;81;21438;-59
2023/09/18 02:53:33;;;;;;;25.02;12.70;;;;;;;10.50;73.74;101599.37;1737914;81;21395;-58
2023/09/18 02:56:39;;;;;;;19.37;12.28;;;;;;;10.50;73.79;101596.14;1738059;81;21897;-60
2023/09/18 02:59:46;;;;;;;16.62;12.07;;;;;;;10.47;73.77;101597.81;1737951;81;21355;-60
2023/09/18 03:02:53;;;;;;;17.45;12.35;;;;;;;10.45;73.79;101597.08;1738326;82;22064;-59
2023/09/18 03:05:59;;;;;;;16.62;12.28;;;;;;;10.44;73.82;101599.47;1738132;81;21907;-60
2023/09/18 03:09:04;;;;;;;20.55;13.30;;;;;;;10.42;73.86;101598.75;1740759;81;21343;-60
2023/09/18 03:12:11;;;;;;;16.25;12.10;;;;;;;10.39;73.89;101599.04;1776092;80;21851;-63
2023/09/18 03:15:17;;;;;;;17.55;11.97;;;;;;;10.40;73.94;101604.02;1737870;81;22050;-62
2023/09/18 03:18:22;;;;;;;15.60;12.45;;;;;;;10.39;73.99;101600.91;1738057;82;21479;-60
2023/09/18 03:21:30;;;;;;;17.40;12.37;;;;;;;10.36;73.99;101604.80;1722672;82;21475;-61
2023/09/18 03:24:37;;;;;;;16.67;12.82;;;;;;;10.35;74.05;101604.42;1740331;81;21379;-60
2023/09/18 03:27:43;;;;;;;20.92;12.25;;;;;;;10.35;74.16;101601.69;1745260;81;21724;-61
2023/09/18 03:30:52;;;;;;;15.50;12.15;;;;;;;10.34;74.15;101603.20;1743864;80;21251;-60
2023/09/18 03:33:59;;;;;;;18.10;12.90;;;;;;;10.35;74.27;101610.43;1707079;84;21906;-60
2023/09/18 03:37:04;;;;;;;20.17;12.90;;;;;;;10.37;74.38;101605.16;1758806;80;21346;-62
2023/09/18 03:40:10;;;;;;;15.53;12.23;;;;;;;10.39;74.43;101607.25;1772367;79;21918;-61
2023/09/18 03:43:18;;;;;;;18.00;12.73;;;;;;;10.40;74.42;101602.66;1739637;81;21911;-60
2023/09/18 03:46:24;;;;;;;14.95;12.13;;;;;;;10.41;74.48;101609.84;1737712;81;21391;-61
2023/09/18 03:49:32;;;;;;;14.75;12.20;;;;;;;10.41;74.53;101609.34;1756958;81;21370;-60
2023/09/18 03:52:38;;;;;;;17.65;12.68;;;;;;;10.44;74.54;101613.16;1748054;81;21399;-61
2023/09/18 03:55:37;;;;;;;19.15;12.43;;;;;;;10.43;74.53;101608.67;1738507;81;21398;-60
2023/09/18 03:58:32;;;;;;;16.90;12.30;;;;;;;10.45;74.55;101616.73;1737585;81;21383;-60
2023/09/18 04:01:21;;;;;;;17.65;12.65;;;;;;;10.48;74.64;101613.22;1755087;81;21343;-61
2023/09/18 04:04:14;;;;;;;20.62;11.93;;;;;;;10.52;74.77;101609.69;1766686;81;21337;-61
2023/09/18 04:07:22;;;;;;;18.80;12.68;;;;;;;10.58;74.81;101615.10;1757130;81;21855;-61
2023/09/18 04:10:28;;;;;;;18.30;12.33;;;;;;;10.61;74.82;101603.33;1766578;81;21452;-61
2023/09/18 04:13:37;;;;;;;19.02;12.07;;;;;;;10.65;74.82;101605.27;1766718;80;21347;-61
2023/09/18 04:16:44;;;;;;;19.07;13.20;;;;;;;10.67;74.75;101608.74;1766612;81;21339;-60
2023/09/18 04:19:51;;;;;;;20.27;13.50;;;;;;;10.67;74.68;101615.59;1766855;81;22222;-60
2023/09/18 04:23:19;;;;;;;19.73;12.82;;;;;;;10.68;74.70;101614.56;1762220;81;21358;-61
2023/09/18 04:26:30;;;;;;;17.95;12.23;;;;;;;10.70;74.77;101612.55;1755472;80;21961;-61
2023/09/18 04:29:38;;;;;;;19.52;13.32;;;;;;;10.74;74.84;101613.97;1755921;80;21342;-61
2023/09/18 04:32:45;;;;;;;20.88;14.07;;;;;;;10.79;74.98;101613.03;1755817;81;21357;-61
2023/09/18 04:35:51;;;;;;;24.47;13.68;;;;;;;10.85;75.09;101613.80;1755883;80;21784;-61
2023/09/18 04:38:57;;;;;;;17.50;14.13;;;;;;;10.93;75.25;101616.17;1766254;80;21351;-61
2023/09/18 04:42:04;;;;;;;19.98;13.55;;;;;;;10.98;75.31;101609.75;1766063;79;21974;-61
2023/09/18 04:45:10;;;;;;;24.65;14.78;;;;;;;11.09;75.44;101618.28;1721846;82;21280;-61
2023/09/18 04:48:15;;;;;;;20.25;14.33;;;;;;;11.14;75.55;101612.73;1720528;81;21221;-61
2023/09/18 04:51:21;;;;;;;24.00;16.67;;;;;;;11.21;75.62;101615.21;1693762;83;21232;-61
2023/09/18 04:54:26;;;;;;;20.82;14.38;;;;;;;11.31;75.73;101613.80;1700081;83;21190;-64
2023/09/18 04:57:31;;;;;;;23.57;14.63;;;;;;;11.42;75.86;101613.61;1717654;82;21236;-64
2023/09/18 05:00:36;;;;;;;18.67;14.07;;;;;;;11.51;75.94;101614.09;1693142;83;21256;-63
2023/09/18 05:03:43;;;;;;;22.93;14.10;;;;;;;11.58;75.95;101616.06;1730109;80;21202;-62
2023/09/18 05:06:50;;;;;;;24.07;14.18;;;;;;;11.67;76.01;101613.80;1777506;79;21553;-62
2023/09/18 05:09:56;;;;;;;24.43;14.75;;;;;;;11.76;76.13;101610.66;1777995;79;21263;-66
2023/09/18 05:13:02;;;;;;;21.12;13.70;;;;;;;11.87;76.24;101610.45;1781317;80;21224;-67
2023/09/18 05:16:06;;;;;;;53.78;28.85;;;;;;;11.96;76.33;101611.76;1780875;79;21216;-66
2023/09/18 05:19:13;;;;;;;42.43;25.60;;;;;;;12.06;76.39;101603.45;1755514;81;21177;-66
2023/09/18 05:22:18;;;;;;;20.92;15.10;;;;;;;12.17;76.44;101615.58;1745588;81;21200;-66
2023/09/18 05:25:28;;;;;;;20.10;14.20;;;;;;;12.27;76.54;101610.02;1760654;81;21201;-66
2023/09/18 05:28:35;;;;;;;17.07;13.83;;;;;;;12.37;76.60;101614.39;1764876;81;21186;-64
2023/09/18 05:31:41;;;;;;;20.08;14.05;;;;;;;12.49;76.70;101611.78;1755274;80;21840;-65
2023/09/18 05:34:46;;;;;;;16.35;13.38;;;;;;;12.60;76.79;101614.28;1770628;79;21558;-64
2023/09/18 05:37:56;;;;;;;18.82;13.22;;;;;;;12.74;76.84;101622.44;1766266;80;21675;-67
2023/09/18 05:41:01;;;;;;;25.35;15.03;;;;;;;12.83;76.90;101614.10;1765210;80;21213;-66
2023/09/18 05:44:08;;;;;;;20.02;13.98;;;;;;;12.95;76.95;101618.84;1764943;80;21205;-67
2023/09/18 05:47:13;;;;;;;24.27;15.10;;;;;;;13.07;77.02;101607.44;1766090;81;21335;-68
2023/09/18 05:50:21;;;;;;;20.55;15.30;;;;;;;13.18;77.06;101611.29;1781600;79;21538;-68
2023/09/18 05:53:28;;;;;;;25.62;15.23;;;;;;;13.31;77.08;101617.72;1770370;79;21848;-66
2023/09/18 05:56:33;;;;;;;20.12;14.73;;;;;;;13.41;77.10;101615.19;1761335;80;21718;-68
2023/09/18 05:59:57;;;;;;;17.60;13.38;;;;;;;13.54;77.12;101612.02;1735177;82;21238;-68
2023/09/18 06:03:06;;;;;;;17.10;13.45;;;;;;;13.70;77.22;101605.70;1701949;83;21235;-68
2023/09/18 06:06:14;;;;;;;19.70;14.75;;;;;;;13.80;77.24;101605.91;1720347;82;21994;-65
2023/09/18 06:09:22;;;;;;;20.43;14.47;;;;;;;13.93;77.24;101606.30;1699231;83;21217;-60
2023/09/18 06:12:30;;;;;;;18.65;13.58;;;;;;;14.07;77.29;101602.02;1696944;84;21321;-61
2023/09/18 06:15:36;;;;;;;21.87;14.58;;;;;;;14.19;77.35;101596.55;1779232;78;21451;-61
2023/09/18 06:18:44;;;;;;;32.80;20.02;;;;;;;14.32;77.38;101597.80;1782040;80;21381;-62
2023/09/18 06:21:52;;;;;;;45.85;27.17;;;;;;;14.43;77.40;101591.95;1782919;80;21410;-62
2023/09/18 06:24:58;;;;;;;16.17;12.82;;;;;;;14.56;77.40;101597.81;1783512;79;21418;-60
2023/09/18 06:28:03;;;;;;;15.30;11.70;;;;;;;14.70;77.37;101598.50;1784475;79;21247;-60
2023/09/18 06:31:11;;;;;;;16.37;12.45;;;;;;;14.81;77.36;101601.41;1784755;79;21204;-64
2023/09/18 06:34:17;;;;;;;17.42;11.85;;;;;;;14.94;77.36;101604.00;1784581;80;21339;-66
2023/09/18 06:37:24;;;;;;;15.65;12.18;;;;;;;15.07;77.38;101604.84;1784324;80;21211;-63
2023/09/18 06:40:32;;;;;;;15.43;11.40;;;;;;;15.24;77.40;101611.20;1783845;79;21215;-65
2023/09/18 06:43:38;;;;;;;16.25;10.82;;;;;;;15.37;77.36;101610.10;1780814;80;21241;-64
2023/09/18 06:46:56;;;;;;;;;;;;;;;;;;;;;
2023/09/18 06:50:07;;;;;;;20.00;11.48;;;;;;;15.71;77.34;101607.95;1840647;76;22276;-64
2023/09/18 06:53:11;;;;;;;15.72;11.12;;;;;;;15.75;77.36;101610.17;1748223;81;21244;-63
2023/09/18 06:56:18;;;;;;;16.37;11.05;;;;;;;15.90;77.36;101605.60;1738004;82;21271;-62
2023/09/18 06:59:25;;;;;;;15.20;11.18;;;;;;;16.03;77.38;101614.17;1767653;80;21477;-65
2023/09/18 07:02:33;;;;;;;14.45;10.98;;;;;;;16.19;77.41;101602.16;1796254;78;21351;-64
2023/09/18 07:05:42;;;;;;;18.17;11.28;;;;;;;16.31;77.44;101607.11;1776512;79;21512;-63
2023/09/18 07:08:49;;;;;;;14.80;11.15;;;;;;;16.45;77.42;101605.47;1797404;78;21200;-65
2023/09/18 07:11:57;;;;;;;20.20;10.90;;;;;;;16.59;77.40;101604.66;1809260;78;21780;-64
2023/09/18 07:15:03;;;;;;;23.47;11.45;;;;;;;16.73;77.40;101604.40;1815934;76;21375;-61
2023/09/18 07:18:16;;;;;;;19.27;11.50;;;;;;;16.85;77.37;101601.52;1784240;78;21330;-59
2023/09/18 07:21:23;;;;;;;18.55;12.15;;;;;;;16.98;77.35;101598.97;1805219;78;21291;-60
2023/09/18 07:24:29;;;;;;;14.40;10.40;;;;;;;17.11;77.31;101589.52;1814892;78;22008;-60
2023/09/18 07:27:36;;;;;;;11.78;8.48;;;;;;;17.23;77.25;101597.67;1825250;78;21508;-60
2023/09/18 07:30:43;;;;;;;11.45;8.80;;;;;;;17.35;77.26;101594.75;1829802;77;21298;-60
2023/09/18 07:33:52;;;;;;;9.80;8.48;;;;;;;17.50;77.19;101596.53;1810743;79;21350;-61
2023/09/18 07:37:02;;;;;;;16.27;8.25;;;;;;;17.64;77.18;101587.88;1811900;78;21744;-60
2023/09/18 07:40:07;;;;;;;10.78;7.95;;;;;;;17.77;77.15;101590.83;1804922;78;21165;-59
2023/09/18 07:43:13;;;;;;;15.40;9.68;;;;;;;17.90;77.09;101588.23;1760621;80;21420;-64
2023/09/18 07:46:20;;;;;;;10.93;8.98;;;;;;;18.02;77.04;101588.05;1774716;79;21291;-64
2023/09/18 07:49:26;;;;;;;14.30;9.78;;;;;;;18.14;76.98;101581.48;1789820;79;21236;-63
2023/09/18 07:52:32;;;;;;;11.60;9.00;;;;;;;18.25;76.92;101579.58;1767415;79;21181;-65
2023/09/18 07:55:38;;;;;;;10.75;7.55;;;;;;;18.35;76.80;101578.70;1784446;78;21221;-65
2023/09/18 07:58:46;;;;;;;9.05;7.20;;;;;;;18.47;76.71;101582.17;1788937;78;21895;-62
2023/09/18 08:01:52;;;;;;;11.65;7.25;;;;;;;18.56;76.54;101579.63;1781990;78;21197;-63
2023/09/18 08:04:59;;;;;;;8.23;6.78;;;;;;;18.66;76.44;101567.64;1794386;78;21272;-64
2023/09/18 08:08:05;;;;;;;7.85;6.22;;;;;;;18.77;76.22;101572.68;1812702;78;21196;-64
2023/09/18 08:11:16;;;;;;;9.75;6.97;;;;;;;18.87;76.00;101573.17;1797204;78;21570;-62
2023/09/18 08:14:21;;;;;;;10.63;7.15;;;;;;;18.98;75.89;101573.17;1765879;80;21192;-62
2023/09/18 08:17:27;;;;;;;8.70;6.67;;;;;;;19.07;75.77;101568.66;1788453;80;21189;-62
2023/09/18 08:20:36;;;;;;;8.73;6.62;;;;;;;19.18;75.60;101569.48;1769262;79;21212;-64
2023/09/18 08:23:44;;;;;;;8.98;6.55;;;;;;;19.27;75.41;101569.64;1795634;78;21546;-64
2023/09/18 08:26:50;;;;;;;9.15;6.67;;;;;;;19.37;75.29;101567.92;1798648;78;21296;-63
2023/09/18 08:29:57;;;;;;;11.97;6.97;;;;;;;19.46;75.16;101569.98;1779080;79;21193;-61
2023/09/18 08:33:03;;;;;;;9.83;6.95;;;;;;;19.56;75.05;101559.36;1774259;80;21720;-63
2023/09/18 08:36:10;;;;;;;8.53;6.78;;;;;;;19.67;74.93;101556.87;1790753;78;21776;-62
2023/09/18 08:39:15;;;;;;;8.90;6.35;;;;;;;19.79;74.81;101555.75;1789979;78;21347;-61
2023/09/18 08:42:21;;;;;;;9.88;6.47;;;;;;;19.89;74.67;101560.38;1778149;78;21374;-62
2023/09/18 08:45:30;;;;;;;9.15;6.55;;;;;;;20.00;74.57;101559.77;1784286;78;21335;-62
2023/09/18 08:48:36;;;;;;;8.30;6.05;;;;;;;20.11;74.37;101561.95;1753304;81;21184;-63
2023/09/18 08:51:41;;;;;;;8.03;6.30;;;;;;;20.19;74.16;101557.09;1786358;78;21851;-62
2023/09/18 08:54:48;;;;;;;8.43;6.20;;;;;;;20.27;73.87;101554.65;1782648;79;21862;-66
2023/09/18 08:57:53;;;;;;;10.70;6.42;;;;;;;20.33;73.57;101551.02;1809586;78;21644;-66
2023/09/18 09:01:01;;;;;;;12.13;6.40;;;;;;;20.42;73.42;101549.77;1803690;78;21370;-65
2023/09/18 09:04:07;;;;;;;16.52;9.55;;;;;;;20.52;73.25;101547.41;1769823;80;21426;-58
2023/09/18 09:07:18;;;;;;;8.68;6.47;;;;;;;20.62;73.04;101538.12;1780799;78;21181;-60
2023/09/18 09:10:25;;;;;;;9.90;6.05;;;;;;;20.72;72.84;101546.91;1776445;79;21247;-59
2023/09/18 09:13:33;;;;;;;10.82;6.35;;;;;;;20.80;72.54;101546.14;1836337;78;22039;-59
2023/09/18 09:16:42;;;;;;;10.63;6.97;;;;;;;20.89;72.27;101544.02;1786378;78;21486;-58
2023/09/18 09:19:49;;;;;;;10.05;6.20;;;;;;;20.97;71.99;101542.44;1818251;78;21169;-57
2023/09/18 09:22:55;;;;;;;7.58;6.28;;;;;;;21.07;71.81;101542.86;1817554;78;21397;-58
2023/09/18 09:26:05;;;;;;;9.33;6.10;;;;;;;21.18;71.66;101538.03;1831354;78;21648;-58
2023/09/18 09:29:29;;;;;;;8.25;6.00;;;;;;;21.26;71.39;101541.98;1791174;78;21205;-60
2023/09/18 09:32:40;;;;;;;10.15;6.85;;;;;;;21.36;71.14;101535.40;1770880;78;22253;-58
2023/09/18 09:35:47;;;;;;;9.65;6.70;;;;;;;21.32;70.71;101536.05;1757889;81;21363;-58
2023/09/18 09:38:54;;;;;;;8.88;5.85;;;;;;;21.27;70.41;101535.32;1773322;79;21202;-59
2023/09/18 09:42:03;;;;;;;7.97;6.10;;;;;;;21.29;70.20;101536.49;1767714;80;21363;-58
2023/09/18 09:45:16;;;;;;;9.23;7.12;;;;;;;21.39;70.00;101543.31;1771623;79;21387;-56
2023/09/18 09:48:22;;;;;;;7.42;6.70;;;;;;;21.47;69.74;101544.48;1769438;79;21346;-55
2023/09/18 09:51:30;;;;;;;17.55;14.75;;;;;;;21.48;69.36;101539.24;1767213;80;21354;-55
2023/09/18 09:54:42;;;;;;;9.15;7.10;;;;;;;21.46;69.08;101533.02;1777299;79;21189;-56
2023/09/18 09:58:08;;;;;;;7.87;6.90;;;;;;;21.46;68.75;101534.94;1729629;81;21209;-58
2023/09/18 10:01:23;;;;;;;9.23;6.30;;;;;;;21.52;68.54;101533.53;1720198;82;21418;-54
2023/09/18 10:04:29;;;;;;;7.80;6.58;;;;;;;21.58;68.21;101525.68;1769992;80;21442;-54
2023/09/18 10:07:37;;;;;;;8.05;6.70;;;;;;;21.56;67.88;101525.07;1766878;80;21295;-54
2023/09/18 10:10:51;;;;;;;9.45;6.75;;;;;;;21.61;67.70;101522.45;1734961;80;21216;-56
2023/09/18 10:14:03;;;;;;;9.33;6.62;;;;;;;21.74;67.46;101522.41;1701436;83;21284;-57
2023/09/18 10:17:24;;;;;;;10.50;7.47;;;;;;;21.89;67.18;101522.16;1744135;81;21694;-55
2023/09/18 10:20:30;;;;;;;11.28;7.92;;;;;;;21.99;66.85;101512.23;1733642;81;21195;-55
2023/09/18 10:23:47;;;;;;;12.15;8.30;;;;;;;22.12;66.57;101511.30;1773001;80;21960;-55
2023/09/18 10:27:11;;;;;;;7.50;6.08;;;;;;;22.22;66.32;101504.70;1742779;81;21274;-55
2023/09/18 10:30:26;;;;;;;8.48;7.15;;;;;;;22.37;66.05;101504.38;1769335;80;21817;-54
2023/09/18 10:33:30;;;;;;;8.28;6.15;;;;;;;22.53;65.84;101501.95;1745896;79;21310;-58
2023/09/18 10:36:37;;;;;;;9.53;7.55;;;;;;;22.68;65.57;101502.98;1763225;80;21719;-58
2023/09/18 10:39:52;;;;;;;11.20;6.47;;;;;;;22.79;65.27;101496.66;1781153;79;21201;-55
2023/09/18 10:42:59;;;;;;;10.95;6.78;;;;;;;22.86;64.80;101494.67;1746237;80;21315;-55
2023/09/18 10:46:04;;;;;;;9.93;7.15;;;;;;;22.89;64.63;101483.90;1745484;81;21526;-55
2023/09/18 10:49:11;;;;;;;13.53;6.80;;;;;;;22.93;64.33;101477.31;1770262;78;21231;-60
2023/09/18 10:52:20;;;;;;;9.33;6.92;;;;;;;22.97;63.99;101479.95;1768233;79;21181;-58
2023/09/18 10:55:26;;;;;;;7.60;6.58;;;;;;;23.06;63.69;101484.14;1768598;79;21344;-58
2023/09/18 10:58:35;;;;;;;15.72;7.15;;;;;;;23.16;63.38;101469.11;1753757;80;21670;-61
2023/09/18 11:01:39;;;;;;;9.55;6.60;;;;;;;23.31;63.15;101476.58;1752382;80;21211;-62
2023/09/18 11:04:45;;;;;;;7.90;5.60;;;;;;;23.43;62.83;101469.15;1750209;80;21263;-60
2023/09/18 11:07:50;;;;;;;8.08;6.30;;;;;;;23.56;62.57;101471.22;1708993;81;21163;-60
2023/09/18 11:11:11;;;;;;;9.03;7.92;;;;;;;23.67;62.17;101471.53;1806477;79;21806;-59
2023/09/18 11:14:19;;;;;;;10.65;7.83;;;;;;;23.80;61.98;101466.60;1785403;80;21196;-58
2023/09/18 11:17:46;;;;;;;9.55;5.85;;;;;;;23.96;61.69;101460.35;1764274;80;21354;-60
2023/09/18 11:20:52;;;;;;;7.83;5.62;;;;;;;24.12;61.54;101464.48;1767423;79;21219;-58
2023/09/18 11:24:11;;;;;;;6.72;5.53;;;;;;;24.10;60.87;101463.30;1720403;82;21482;-58
2023/09/18 11:27:18;;;;;;;13.13;6.87;;;;;;;24.04;60.48;101457.26;1794288;77;21208;-57
2023/09/18 11:30:24;;;;;;;12.20;6.65;;;;;;;24.06;60.09;101454.22;1793948;79;21783;-59
2023/09/18 11:33:46;;;;;;;6.37;5.47;;;;;;;24.12;59.83;101454.69;1784465;79;21235;-60
2023/09/18 11:36:53;;;;;;;8.13;5.85;;;;;;;24.26;59.62;101447.22;1780282;78;21778;-59
2023/09/18 11:40:00;;;;;;;6.33;5.35;;;;;;;24.41;59.37;101446.23;1788934;79;21417;-62
2023/09/18 11:43:37;;;;;;;5.78;4.90;;;;;;;24.57;59.05;101439.94;1724005;81;21725;-60
2023/09/18 11:46:47;;;;;;;11.75;7.67;;;;;;;24.70;58.71;101443.08;1750989;81;21216;-58
2023/09/18 11:50:01;;;;;;;7.45;6.25;;;;;;;24.83;58.19;101435.27;1726632;81;21447;-62
2023/09/18 11:53:08;;;;;;;7.40;6.08;;;;;;;24.86;57.70;101433.95;1753741;81;21204;-60
2023/09/18 11:56:18;;;;;;;7.65;5.97;;;;;;;24.94;57.43;101430.22;1737051;81;21601;-61
2023/09/18 11:59:24;;;;;;;9.00;5.78;;;;;;;25.01;57.09;101439.36;1711310;81;21243;-57
2023/09/18 12:02:41;;;;;;;9.53;6.08;;;;;;;25.07;56.68;101440.89;1757066;80;21247;-60
2023/09/18 12:05:49;;;;;;;6.62;5.37;;;;;;;25.11;56.28;101441.55;1714827;82;21711;-60
2023/09/18 12:08:59;;;;;;;9.60;6.37;;;;;;;25.14;55.81;101435.98;1744239;81;21710;-59
2023/09/18 12:12:15;;;;;;;7.65;6.17;;;;;;;25.13;55.37;101430.95;1743980;80;22005;-60
2023/09/18 12:15:29;;;;;;;6.78;5.10;;;;;;;25.16;55.04;101437.46;1744412;81;21411;-59
2023/09/18 12:18:38;;;;;;;5.85;4.60;;;;;;;25.21;54.73;101433.92;1742423;79;21180;-58
2023/09/18 12:21:53;;;;;;;8.05;5.37;;;;;;;25.19;54.27;101424.89;1778490;79;21216;-65
2023/09/18 12:25:22;;;;;;;8.45;5.70;;;;;;;25.19;53.96;101427.70;1730681;82;21208;-62
2023/09/18 12:28:32;;;;;;;6.62;5.85;;;;;;;25.18;53.55;101425.44;1736557;81;21203;-58
2023/09/18 12:31:46;;;;;;;6.12;5.20;;;;;;;25.17;53.20;101425.68;1773096;79;21188;-58
2023/09/18 12:34:54;;;;;;;8.40;5.65;;;;;;;25.13;52.80;101423.95;1775939;79;21204;-59
2023/09/18 12:38:00;;;;;;;7.78;5.33;;;;;;;25.11;52.54;101419.13;1781483;79;21200;-58
2023/09/18 12:41:11;;;;;;;6.95;6.00;;;;;;;25.08;52.20;101421.02;1787944;79;21196;-58
2023/09/18 12:44:17;;;;;;;6.92;5.55;;;;;;;25.03;51.81;101417.56;1780423;79;21756;-60
2023/09/18 12:47:22;;;;;;;8.98;5.78;;;;;;;24.94;51.28;101411.17;1749361;81;21189;-58
2023/09/18 12:50:29;;;;;;;9.93;5.67;;;;;;;24.86;50.95;101410.14;1766599;79;21266;-58
2023/09/18 12:53:33;;;;;;;5.70;5.00;;;;;;;24.77;50.59;101408.24;1736859;81;21264;-58
2023/09/18 12:56:39;;;;;;;8.40;4.90;;;;;;;24.73;50.39;101400.04;1749436;80;21237;-58
2023/09/18 12:59:49;;;;;;;8.68;5.62;;;;;;;24.71;50.18;101398.56;1748733;80;21876;-58
2023/09/18 13:02:57;;;;;;;10.45;5.90;;;;;;;24.68;49.90;101397.11;1737067;81;21212;-59
2023/09/18 13:06:18;;;;;;;8.48;5.33;;;;;;;24.61;49.51;101396.33;1763928;80;21315;-58
2023/09/18 13:09:26;;;;;;;7.53;5.12;;;;;;;24.52;49.19;101389.40;1744709;80;21370;-58
2023/09/18 13:12:35;;;;;;;9.88;5.80;;;;;;;24.46;49.00;101398.77;1721656;80;21216;-59
2023/09/18 13:15:45;;;;;;;6.17;5.20;;;;;;;24.45;48.83;101395.65;1716490;81;21896;-57
2023/09/18 13:18:57;;;;;;;7.12;5.70;;;;;;;24.45;48.73;101394.25;1728883;82;21247;-58
2023/09/18 13:22:04;;;;;;;6.65;5.50;;;;;;;24.44;48.58;101393.95;1721059;82;21717;-59
2023/09/18 13:25:13;;;;;;;9.38;5.58;;;;;;;24.43;48.36;101399.27;1755742;80;21723;-58
2023/09/18 13:28:20;;;;;;;9.70;5.90;;;;;;;24.41;48.18;101397.78;1747067;81;21345;-58
2023/09/18 13:31:28;;;;;;;7.35;5.83;;;;;;;24.42;48.00;101386.91;1742587;81;21248;-58
2023/09/18 13:34:33;;;;;;;7.53;5.92;;;;;;;24.40;47.84;101388.55;1748040;80;21212;-59
2023/09/18 13:37:42;;;;;;;13.83;9.45;;;;;;;24.39;47.66;101384.56;1753333;80;22069;-57
2023/09/18 13:40:48;;;;;;;7.45;5.92;;;;;;;24.35;47.40;101381.42;1745955;80;21271;-59
2023/09/18 13:43:55;;;;;;;9.60;6.08;;;;;;;24.32;47.22;101379.64;1684543;83;21320;-58
2023/09/18 13:47:03;;;;;;;9.48;6.03;;;;;;;24.29;47.02;101380.13;1748729;82;21362;-59
2023/09/18 13:50:10;;;;;;;7.47;5.67;;;;;;;24.25;46.86;101377.49;1742832;81;21216;-59
2023/09/18 13:53:16;;;;;;;6.53;5.35;;;;;;;24.21;46.78;101377.14;1709792;83;21232;-58
2023/09/18 13:56:32;;;;;;;7.55;5.37;;;;;;;24.19;46.65;101369.53;1728754;80;21432;-58
2023/09/18 13:59:31;;;;;;;6.62;5.53;;;;;;;24.16;46.51;101370.02;1732301;81;21824;-55
2023/09/18 14:02:37;;;;;;;9.13;5.78;;;;;;;24.17;46.47;101368.05;1720830;82;21243;-55
2023/09/18 14:05:45;;;;;;;6.80;5.50;;;;;;;24.16;46.33;101363.55;1697886;83;21359;-56
2023/09/18 14:08:52;;;;;;;9.13;5.42;;;;;;;24.15;46.24;101361.29;1689014;84;21241;-56
2023/09/18 14:11:58;;;;;;;7.83;5.55;;;;;;;24.13;46.11;101359.30;1747213;80;21268;-59
2023/09/18 14:15:04;;;;;;;8.93;5.70;;;;;;;24.09;45.93;101357.20;1739219;80;21199;-59
2023/09/18 14:18:04;;;;;;;7.17;5.15;;;;;;;24.04;45.75;101360.73;1736969;81;21268;-59
2023/09/18 14:20:58;;;;;;;7.37;5.70;;;;;;;23.99;45.62;101358.36;1745719;81;21185;-61
2023/09/18 14:24:04;;;;;;;8.78;5.90;;;;;;;23.93;45.60;101356.49;1737042;81;21181;-58